sensor_id;sensor_type;location;lat;lon;timestamp;P1;durP1;ratioP1;P2;durP2;ratioP2
76417;SDS011;65250;47.602;19.002;2023-03-13T00:01:30;6.38;;;3.13;;
76417;SDS011;65250;47.602;19.002;2023-03-13T00:03:58;6.00;;;3.33;;
76417;SDS011;65250;47.602;19.002;2023-03-13T00:06:33;5.72;;;3.15;;
76417;SDS011;65250;47.602;19.002;2023-03-13T00:09:01;7.37;;;3.40;;
76417;SDS011;65250;47.602;19.002;2023-03-13T00:11:30;4.90;;;2.88;;
76417;SDS011;65250;47.602;19.002;2023-03-13T00:13:58;6.30;;;3.00;;
76417;SDS011;65250;47.602;19.002;2023-03-13T00:16:26;5.70;;;2.92;;
76417;SDS011;65250;47.602;19.002;2023-03-13T00:18:54;6.90;;;3.00;;
76417;SDS011;65250;47.602;19.002;2023-03-13T00:21:22;5.70;;;2.77;;
76417;SDS011;65250;47.602;19.002;2023-03-13T00:23:50;5.90;;;3.20;;
76417;SDS011;65250;47.602;19.002;2023-03-13T00:26:18;5.00;;;2.90;;
76417;SDS011;65250;47.602;19.002;2023-03-13T00:28:46;6.65;;;3.33;;
76417;SDS011;65250;47.602;19.002;2023-03-13T00:33:41;6.57;;;2.93;;
76417;SDS011;65250;47.602;19.002;2023-03-13T00:36:11;7.80;;;3.10;;
76417;SDS011;65250;47.602;19.002;2023-03-13T00:38:40;4.95;;;3.08;;
76417;SDS011;65250;47.602;19.002;2023-03-13T00:41:08;5.45;;;3.35;;
76417;SDS011;65250;47.602;19.002;2023-03-13T00:43:40;7.95;;;3.35;;
76417;SDS011;65250;47.602;19.002;2023-03-13T00:46:07;5.30;;;3.33;;
76417;SDS011;65250;47.602;19.002;2023-03-13T00:48:35;4.72;;;3.05;;
76417;SDS011;65250;47.602;19.002;2023-03-13T00:51:02;5.43;;;3.13;;
76417;SDS011;65250;47.602;19.002;2023-03-13T00:53:29;6.40;;;3.25;;
76417;SDS011;65250;47.602;19.002;2023-03-13T00:55:57;5.72;;;3.60;;
76417;SDS011;65250;47.602;19.002;2023-03-13T00:58:30;7.37;;;3.33;;
76417;SDS011;65250;47.602;19.002;2023-03-13T01:01:20;6.47;;;3.63;;
76417;SDS011;65250;47.602;19.002;2023-03-13T01:03:50;5.32;;;3.25;;
76417;SDS011;65250;47.602;19.002;2023-03-13T01:06:19;6.75;;;3.67;;
76417;SDS011;65250;47.602;19.002;2023-03-13T01:08:48;6.47;;;3.22;;
76417;SDS011;65250;47.602;19.002;2023-03-13T01:11:17;5.13;;;2.87;;
76417;SDS011;65250;47.602;19.002;2023-03-13T01:13:45;6.30;;;3.20;;
76417;SDS011;65250;47.602;19.002;2023-03-13T01:16:14;6.63;;;3.20;;
76417;SDS011;65250;47.602;19.002;2023-03-13T01:18:43;8.45;;;3.50;;
76417;SDS011;65250;47.602;19.002;2023-03-13T01:21:11;8.07;;;3.38;;
76417;SDS011;65250;47.602;19.002;2023-03-13T01:23:39;6.27;;;3.50;;
76417;SDS011;65250;47.602;19.002;2023-03-13T01:26:06;6.47;;;2.45;;
76417;SDS011;65250;47.602;19.002;2023-03-13T01:28:34;5.68;;;3.10;;
76417;SDS011;65250;47.602;19.002;2023-03-13T01:31:11;6.47;;;3.20;;
76417;SDS011;65250;47.602;19.002;2023-03-13T01:33:38;6.20;;;3.67;;
76417;SDS011;65250;47.602;19.002;2023-03-13T01:36:05;5.93;;;2.63;;
76417;SDS011;65250;47.602;19.002;2023-03-13T01:38:32;4.60;;;2.55;;
76417;SDS011;65250;47.602;19.002;2023-03-13T01:40:58;6.85;;;3.22;;
76417;SDS011;65250;47.602;19.002;2023-03-13T01:43:27;7.57;;;3.47;;
76417;SDS011;65250;47.602;19.002;2023-03-13T01:46:03;6.03;;;2.78;;
76417;SDS011;65250;47.602;19.002;2023-03-13T01:51:04;5.68;;;3.05;;
76417;SDS011;65250;47.602;19.002;2023-03-13T01:53:36;4.68;;;2.47;;
76417;SDS011;65250;47.602;19.002;2023-03-13T01:56:06;4.75;;;3.03;;
76417;SDS011;65250;47.602;19.002;2023-03-13T01:58:34;5.80;;;2.30;;
76417;SDS011;65250;47.602;19.002;2023-03-13T02:01:01;4.97;;;2.80;;
76417;SDS011;65250;47.602;19.002;2023-03-13T02:03:29;8.35;;;2.92;;
76417;SDS011;65250;47.602;19.002;2023-03-13T02:05:56;5.00;;;2.92;;
76417;SDS011;65250;47.602;19.002;2023-03-13T02:08:28;6.00;;;2.85;;
76417;SDS011;65250;47.602;19.002;2023-03-13T02:13:45;6.23;;;3.00;;
76417;SDS011;65250;47.602;19.002;2023-03-13T02:16:13;3.58;;;2.30;;
76417;SDS011;65250;47.602;19.002;2023-03-13T02:18:40;3.58;;;2.70;;
76417;SDS011;65250;47.602;19.002;2023-03-13T02:21:09;4.05;;;2.50;;
76417;SDS011;65250;47.602;19.002;2023-03-13T02:23:41;5.70;;;2.92;;
76417;SDS011;65250;47.602;19.002;2023-03-13T02:26:13;6.10;;;2.90;;
76417;SDS011;65250;47.602;19.002;2023-03-13T02:28:41;7.10;;;2.85;;
76417;SDS011;65250;47.602;19.002;2023-03-13T02:31:08;7.05;;;2.90;;
76417;SDS011;65250;47.602;19.002;2023-03-13T02:33:36;5.32;;;2.80;;
76417;SDS011;65250;47.602;19.002;2023-03-13T02:36:04;7.38;;;2.85;;
76417;SDS011;65250;47.602;19.002;2023-03-13T02:38:35;6.20;;;2.53;;
76417;SDS011;65250;47.602;19.002;2023-03-13T02:41:05;4.35;;;2.30;;
76417;SDS011;65250;47.602;19.002;2023-03-13T02:43:33;4.63;;;3.25;;
76417;SDS011;65250;47.602;19.002;2023-03-13T02:48:39;6.07;;;2.95;;
76417;SDS011;65250;47.602;19.002;2023-03-13T02:51:10;4.40;;;2.20;;
76417;SDS011;65250;47.602;19.002;2023-03-13T02:53:40;3.95;;;2.28;;
76417;SDS011;65250;47.602;19.002;2023-03-13T02:56:07;4.78;;;2.40;;
76417;SDS011;65250;47.602;19.002;2023-03-13T02:58:36;5.78;;;2.70;;
76417;SDS011;65250;47.602;19.002;2023-03-13T03:01:15;6.43;;;2.42;;
76417;SDS011;65250;47.602;19.002;2023-03-13T03:03:42;5.93;;;2.50;;
76417;SDS011;65250;47.602;19.002;2023-03-13T03:06:09;3.97;;;2.22;;
76417;SDS011;65250;47.602;19.002;2023-03-13T03:08:35;5.15;;;2.40;;
76417;SDS011;65250;47.602;19.002;2023-03-13T03:11:04;3.90;;;2.45;;
76417;SDS011;65250;47.602;19.002;2023-03-13T03:13:31;5.10;;;3.08;;
76417;SDS011;65250;47.602;19.002;2023-03-13T03:15:58;4.13;;;2.23;;
76417;SDS011;65250;47.602;19.002;2023-03-13T03:18:25;5.53;;;2.22;;
76417;SDS011;65250;47.602;19.002;2023-03-13T03:20:52;6.47;;;2.63;;
76417;SDS011;65250;47.602;19.002;2023-03-13T03:23:19;2.80;;;2.05;;
76417;SDS011;65250;47.602;19.002;2023-03-13T03:25:45;4.82;;;2.60;;
76417;SDS011;65250;47.602;19.002;2023-03-13T03:28:12;4.30;;;2.10;;
76417;SDS011;65250;47.602;19.002;2023-03-13T03:30:39;4.50;;;2.60;;
76417;SDS011;65250;47.602;19.002;2023-03-13T03:33:06;6.20;;;2.40;;
76417;SDS011;65250;47.602;19.002;2023-03-13T03:35:32;4.57;;;2.28;;
76417;SDS011;65250;47.602;19.002;2023-03-13T03:38:03;4.57;;;2.85;;
76417;SDS011;65250;47.602;19.002;2023-03-13T03:40:30;4.47;;;2.43;;
76417;SDS011;65250;47.602;19.002;2023-03-13T03:42:57;5.60;;;2.33;;
76417;SDS011;65250;47.602;19.002;2023-03-13T03:45:24;3.80;;;2.08;;
76417;SDS011;65250;47.602;19.002;2023-03-13T03:47:51;3.88;;;2.47;;
76417;SDS011;65250;47.602;19.002;2023-03-13T03:50:17;5.10;;;2.67;;
76417;SDS011;65250;47.602;19.002;2023-03-13T03:52:44;5.63;;;2.77;;
76417;SDS011;65250;47.602;19.002;2023-03-13T03:55:11;4.57;;;2.20;;
76417;SDS011;65250;47.602;19.002;2023-03-13T03:57:37;7.25;;;2.88;;
76417;SDS011;65250;47.602;19.002;2023-03-13T04:00:04;5.28;;;3.45;;
76417;SDS011;65250;47.602;19.002;2023-03-13T04:02:33;3.63;;;2.30;;
76417;SDS011;65250;47.602;19.002;2023-03-13T04:05:00;4.90;;;2.33;;
76417;SDS011;65250;47.602;19.002;2023-03-13T04:07:26;3.80;;;2.30;;
76417;SDS011;65250;47.602;19.002;2023-03-13T04:09:53;6.35;;;3.08;;
76417;SDS011;65250;47.602;19.002;2023-03-13T04:12:20;5.30;;;2.90;;
76417;SDS011;65250;47.602;19.002;2023-03-13T04:14:47;4.35;;;2.80;;
76417;SDS011;65250;47.602;19.002;2023-03-13T04:17:13;6.27;;;2.67;;
76417;SDS011;65250;47.602;19.002;2023-03-13T04:19:40;5.30;;;2.90;;
76417;SDS011;65250;47.602;19.002;2023-03-13T04:22:07;4.90;;;2.42;;
76417;SDS011;65250;47.602;19.002;2023-03-13T04:24:34;6.13;;;2.60;;
76417;SDS011;65250;47.602;19.002;2023-03-13T04:27:00;5.75;;;2.50;;
76417;SDS011;65250;47.602;19.002;2023-03-13T04:29:28;4.40;;;2.57;;
76417;SDS011;65250;47.602;19.002;2023-03-13T04:31:55;4.05;;;2.78;;
76417;SDS011;65250;47.602;19.002;2023-03-13T04:34:22;6.03;;;3.22;;
76417;SDS011;65250;47.602;19.002;2023-03-13T04:36:49;4.90;;;3.10;;
76417;SDS011;65250;47.602;19.002;2023-03-13T04:39:15;6.03;;;3.00;;
76417;SDS011;65250;47.602;19.002;2023-03-13T04:41:42;5.73;;;3.17;;
76417;SDS011;65250;47.602;19.002;2023-03-13T04:44:09;4.93;;;2.75;;
76417;SDS011;65250;47.602;19.002;2023-03-13T04:46:35;5.38;;;2.80;;
76417;SDS011;65250;47.602;19.002;2023-03-13T04:49:02;5.50;;;2.80;;
76417;SDS011;65250;47.602;19.002;2023-03-13T04:51:29;4.40;;;2.45;;
76417;SDS011;65250;47.602;19.002;2023-03-13T04:53:56;5.33;;;2.60;;
76417;SDS011;65250;47.602;19.002;2023-03-13T04:56:23;6.57;;;2.78;;
76417;SDS011;65250;47.602;19.002;2023-03-13T04:59:09;5.47;;;3.28;;
76417;SDS011;65250;47.602;19.002;2023-03-13T05:01:37;5.63;;;2.72;;
76417;SDS011;65250;47.602;19.002;2023-03-13T05:04:04;5.32;;;2.55;;
76417;SDS011;65250;47.602;19.002;2023-03-13T05:06:31;5.10;;;2.50;;
76417;SDS011;65250;47.602;19.002;2023-03-13T05:08:58;4.45;;;2.72;;
76417;SDS011;65250;47.602;19.002;2023-03-13T05:11:25;5.30;;;2.83;;
76417;SDS011;65250;47.602;19.002;2023-03-13T05:13:51;6.78;;;3.72;;
76417;SDS011;65250;47.602;19.002;2023-03-13T05:16:18;4.38;;;2.53;;
76417;SDS011;65250;47.602;19.002;2023-03-13T05:18:45;5.83;;;2.33;;
76417;SDS011;65250;47.602;19.002;2023-03-13T05:21:12;3.63;;;2.30;;
76417;SDS011;65250;47.602;19.002;2023-03-13T05:23:39;4.05;;;2.22;;
76417;SDS011;65250;47.602;19.002;2023-03-13T05:26:06;3.40;;;1.85;;
76417;SDS011;65250;47.602;19.002;2023-03-13T05:28:32;3.83;;;2.47;;
76417;SDS011;65250;47.602;19.002;2023-03-13T05:30:59;5.47;;;2.73;;
76417;SDS011;65250;47.602;19.002;2023-03-13T05:33:26;5.65;;;2.50;;
76417;SDS011;65250;47.602;19.002;2023-03-13T05:35:53;6.13;;;2.78;;
76417;SDS011;65250;47.602;19.002;2023-03-13T05:38:20;3.83;;;1.98;;
76417;SDS011;65250;47.602;19.002;2023-03-13T05:40:46;4.95;;;2.53;;
76417;SDS011;65250;47.602;19.002;2023-03-13T05:43:13;5.57;;;2.33;;
76417;SDS011;65250;47.602;19.002;2023-03-13T05:45:40;3.30;;;2.00;;
76417;SDS011;65250;47.602;19.002;2023-03-13T05:48:06;5.63;;;2.47;;
76417;SDS011;65250;47.602;19.002;2023-03-13T05:50:33;5.53;;;2.75;;
76417;SDS011;65250;47.602;19.002;2023-03-13T05:53:00;3.60;;;2.15;;
76417;SDS011;65250;47.602;19.002;2023-03-13T05:55:27;6.13;;;2.20;;
76417;SDS011;65250;47.602;19.002;2023-03-13T05:57:53;4.07;;;2.30;;
76417;SDS011;65250;47.602;19.002;2023-03-13T06:00:20;4.90;;;2.40;;
76417;SDS011;65250;47.602;19.002;2023-03-13T06:02:48;4.13;;;2.47;;
76417;SDS011;65250;47.602;19.002;2023-03-13T06:05:14;6.18;;;2.90;;
76417;SDS011;65250;47.602;19.002;2023-03-13T06:07:41;3.47;;;2.40;;
76417;SDS011;65250;47.602;19.002;2023-03-13T06:10:08;5.47;;;2.00;;
76417;SDS011;65250;47.602;19.002;2023-03-13T06:12:35;4.60;;;2.60;;
76417;SDS011;65250;47.602;19.002;2023-03-13T06:15:03;5.68;;;2.28;;
76417;SDS011;65250;47.602;19.002;2023-03-13T06:17:32;5.38;;;2.30;;
76417;SDS011;65250;47.602;19.002;2023-03-13T06:19:59;5.67;;;2.70;;
76417;SDS011;65250;47.602;19.002;2023-03-13T06:22:26;3.72;;;2.50;;
76417;SDS011;65250;47.602;19.002;2023-03-13T06:24:52;5.22;;;2.60;;
76417;SDS011;65250;47.602;19.002;2023-03-13T06:27:19;5.47;;;2.70;;
76417;SDS011;65250;47.602;19.002;2023-03-13T06:29:46;4.68;;;2.38;;
76417;SDS011;65250;47.602;19.002;2023-03-13T06:32:13;5.17;;;2.80;;
76417;SDS011;65250;47.602;19.002;2023-03-13T06:34:39;9.23;;;3.05;;
76417;SDS011;65250;47.602;19.002;2023-03-13T06:37:06;5.47;;;2.40;;
76417;SDS011;65250;47.602;19.002;2023-03-13T06:39:33;4.38;;;2.60;;
76417;SDS011;65250;47.602;19.002;2023-03-13T06:42:00;6.03;;;3.05;;
76417;SDS011;65250;47.602;19.002;2023-03-13T06:44:27;6.70;;;3.10;;
76417;SDS011;65250;47.602;19.002;2023-03-13T06:46:54;5.07;;;3.20;;
76417;SDS011;65250;47.602;19.002;2023-03-13T06:49:20;4.78;;;3.08;;
76417;SDS011;65250;47.602;19.002;2023-03-13T06:51:47;6.93;;;3.25;;
76417;SDS011;65250;47.602;19.002;2023-03-13T06:54:16;5.40;;;3.30;;
76417;SDS011;65250;47.602;19.002;2023-03-13T06:56:43;6.70;;;4.10;;
76417;SDS011;65250;47.602;19.002;2023-03-13T06:59:10;6.30;;;3.70;;
76417;SDS011;65250;47.602;19.002;2023-03-13T07:01:36;9.00;;;4.28;;
76417;SDS011;65250;47.602;19.002;2023-03-13T07:04:07;9.18;;;4.70;;
76417;SDS011;65250;47.602;19.002;2023-03-13T07:06:37;7.18;;;4.55;;
76417;SDS011;65250;47.602;19.002;2023-03-13T07:09:03;7.70;;;5.20;;
76417;SDS011;65250;47.602;19.002;2023-03-13T07:11:31;12.75;;;5.03;;
76417;SDS011;65250;47.602;19.002;2023-03-13T07:13:58;6.32;;;4.38;;
76417;SDS011;65250;47.602;19.002;2023-03-13T07:16:41;7.20;;;3.85;;
76417;SDS011;65250;47.602;19.002;2023-03-13T07:19:08;6.30;;;4.15;;
76417;SDS011;65250;47.602;19.002;2023-03-13T07:21:35;6.80;;;3.87;;
76417;SDS011;65250;47.602;19.002;2023-03-13T07:24:02;6.60;;;3.95;;
76417;SDS011;65250;47.602;19.002;2023-03-13T07:26:29;8.32;;;3.85;;
76417;SDS011;65250;47.602;19.002;2023-03-13T07:28:56;9.82;;;4.68;;
76417;SDS011;65250;47.602;19.002;2023-03-13T07:31:23;6.63;;;4.18;;
76417;SDS011;65250;47.602;19.002;2023-03-13T07:33:50;13.37;;;4.40;;
76417;SDS011;65250;47.602;19.002;2023-03-13T07:36:22;8.85;;;3.97;;
76417;SDS011;65250;47.602;19.002;2023-03-13T07:38:49;5.32;;;3.90;;
76417;SDS011;65250;47.602;19.002;2023-03-13T07:41:17;7.90;;;4.20;;
76417;SDS011;65250;47.602;19.002;2023-03-13T07:43:44;7.70;;;3.47;;
76417;SDS011;65250;47.602;19.002;2023-03-13T07:46:13;4.90;;;3.73;;
76417;SDS011;65250;47.602;19.002;2023-03-13T07:48:41;5.97;;;3.72;;
76417;SDS011;65250;47.602;19.002;2023-03-13T07:51:12;9.18;;;4.22;;
76417;SDS011;65250;47.602;19.002;2023-03-13T07:53:42;6.65;;;4.22;;
76417;SDS011;65250;47.602;19.002;2023-03-13T07:56:10;7.88;;;4.20;;
76417;SDS011;65250;47.602;19.002;2023-03-13T07:58:38;7.90;;;4.60;;
76417;SDS011;65250;47.602;19.002;2023-03-13T08:01:22;9.25;;;4.45;;
76417;SDS011;65250;47.602;19.002;2023-03-13T08:03:53;5.93;;;4.00;;
76417;SDS011;65250;47.602;19.002;2023-03-13T08:06:24;9.05;;;4.93;;
76417;SDS011;65250;47.602;19.002;2023-03-13T08:08:55;7.28;;;4.72;;
76417;SDS011;65250;47.602;19.002;2023-03-13T08:11:23;8.47;;;4.73;;
76417;SDS011;65250;47.602;19.002;2023-03-13T08:13:51;7.10;;;4.38;;
76417;SDS011;65250;47.602;19.002;2023-03-13T08:16:19;9.68;;;5.55;;
76417;SDS011;65250;47.602;19.002;2023-03-13T08:18:49;7.85;;;4.60;;
76417;SDS011;65250;47.602;19.002;2023-03-13T08:21:20;12.18;;;4.40;;
76417;SDS011;65250;47.602;19.002;2023-03-13T08:23:50;8.97;;;4.50;;
76417;SDS011;65250;47.602;19.002;2023-03-13T08:26:19;6.35;;;2.90;;
76417;SDS011;65250;47.602;19.002;2023-03-13T08:28:50;5.03;;;2.83;;
76417;SDS011;65250;47.602;19.002;2023-03-13T08:31:21;10.93;;;2.63;;
76417;SDS011;65250;47.602;19.002;2023-03-13T08:33:49;6.60;;;2.33;;
76417;SDS011;65250;47.602;19.002;2023-03-13T08:38:44;8.07;;;2.53;;
76417;SDS011;65250;47.602;19.002;2023-03-13T08:41:13;3.95;;;2.22;;
76417;SDS011;65250;47.602;19.002;2023-03-13T08:43:40;5.43;;;2.28;;
76417;SDS011;65250;47.602;19.002;2023-03-13T08:46:07;5.43;;;2.17;;
76417;SDS011;65250;47.602;19.002;2023-03-13T08:48:35;9.10;;;2.20;;
76417;SDS011;65250;47.602;19.002;2023-03-13T08:51:09;8.63;;;2.35;;
76417;SDS011;65250;47.602;19.002;2023-03-13T08:53:41;10.20;;;3.00;;
76417;SDS011;65250;47.602;19.002;2023-03-13T08:56:09;7.00;;;3.17;;
76417;SDS011;65250;47.602;19.002;2023-03-13T08:58:37;5.28;;;2.53;;
76417;SDS011;65250;47.602;19.002;2023-03-13T09:01:06;10.00;;;2.73;;
76417;SDS011;65250;47.602;19.002;2023-03-13T09:03:34;7.07;;;2.20;;
76417;SDS011;65250;47.602;19.002;2023-03-13T09:06:02;9.75;;;2.95;;
76417;SDS011;65250;47.602;19.002;2023-03-13T09:08:29;5.97;;;2.40;;
76417;SDS011;65250;47.602;19.002;2023-03-13T09:11:00;7.78;;;2.75;;
76417;SDS011;65250;47.602;19.002;2023-03-13T09:13:29;11.23;;;2.80;;
76417;SDS011;65250;47.602;19.002;2023-03-13T09:15:57;5.75;;;2.33;;
76417;SDS011;65250;47.602;19.002;2023-03-13T09:18:25;3.97;;;2.45;;
76417;SDS011;65250;47.602;19.002;2023-03-13T09:20:52;4.95;;;2.75;;
76417;SDS011;65250;47.602;19.002;2023-03-13T09:23:19;4.15;;;2.45;;
76417;SDS011;65250;47.602;19.002;2023-03-13T09:25:53;7.43;;;3.13;;
76417;SDS011;65250;47.602;19.002;2023-03-13T09:28:22;6.32;;;3.90;;
76417;SDS011;65250;47.602;19.002;2023-03-13T09:30:49;5.93;;;4.10;;
76417;SDS011;65250;47.602;19.002;2023-03-13T09:33:17;5.05;;;4.05;;
76417;SDS011;65250;47.602;19.002;2023-03-13T09:35:44;8.50;;;5.55;;
76417;SDS011;65250;47.602;19.002;2023-03-13T09:38:16;8.70;;;5.47;;
76417;SDS011;65250;47.602;19.002;2023-03-13T09:40:45;7.72;;;5.10;;
76417;SDS011;65250;47.602;19.002;2023-03-13T09:43:36;6.60;;;3.80;;
76417;SDS011;65250;47.602;19.002;2023-03-13T09:48:52;4.93;;;3.30;;
76417;SDS011;65250;47.602;19.002;2023-03-13T09:51:27;5.47;;;3.47;;
76417;SDS011;65250;47.602;19.002;2023-03-13T09:54:26;4.47;;;3.70;;
76417;SDS011;65250;47.602;19.002;2023-03-13T09:56:58;8.90;;;3.33;;
76417;SDS011;65250;47.602;19.002;2023-03-13T09:59:59;7.57;;;3.13;;
76417;SDS011;65250;47.602;19.002;2023-03-13T10:02:33;3.80;;;2.95;;
76417;SDS011;65250;47.602;19.002;2023-03-13T10:07:44;6.47;;;4.22;;
76417;SDS011;65250;47.602;19.002;2023-03-13T10:13:27;4.43;;;3.83;;
76417;SDS011;65250;47.602;19.002;2023-03-13T10:16:08;5.03;;;4.03;;
76417;SDS011;65250;47.602;19.002;2023-03-13T10:18:37;5.30;;;3.73;;
76417;SDS011;65250;47.602;19.002;2023-03-13T10:21:11;4.40;;;3.72;;
76417;SDS011;65250;47.602;19.002;2023-03-13T10:23:49;7.50;;;4.10;;
76417;SDS011;65250;47.602;19.002;2023-03-13T10:26:20;6.50;;;4.28;;
76417;SDS011;65250;47.602;19.002;2023-03-13T10:28:50;6.95;;;4.45;;
76417;SDS011;65250;47.602;19.002;2023-03-13T10:31:30;8.23;;;3.60;;
76417;SDS011;65250;47.602;19.002;2023-03-13T10:34:05;5.07;;;3.42;;
76417;SDS011;65250;47.602;19.002;2023-03-13T10:36:39;6.38;;;4.60;;
76417;SDS011;65250;47.602;19.002;2023-03-13T10:39:15;6.43;;;4.00;;
76417;SDS011;65250;47.602;19.002;2023-03-13T10:41:44;5.60;;;4.20;;
76417;SDS011;65250;47.602;19.002;2023-03-13T10:44:15;7.93;;;5.30;;
76417;SDS011;65250;47.602;19.002;2023-03-13T10:46:57;7.85;;;4.45;;
76417;SDS011;65250;47.602;19.002;2023-03-13T10:49:28;6.82;;;4.65;;
76417;SDS011;65250;47.602;19.002;2023-03-13T10:52:00;6.25;;;4.40;;
76417;SDS011;65250;47.602;19.002;2023-03-13T10:57:07;6.80;;;4.07;;
76417;SDS011;65250;47.602;19.002;2023-03-13T10:59:39;9.07;;;4.43;;
76417;SDS011;65250;47.602;19.002;2023-03-13T11:02:19;7.20;;;4.97;;
76417;SDS011;65250;47.602;19.002;2023-03-13T11:04:46;5.75;;;4.63;;
76417;SDS011;65250;47.602;19.002;2023-03-13T11:10:05;5.30;;;3.87;;
76417;SDS011;65250;47.602;19.002;2023-03-13T11:12:43;6.10;;;4.55;;
76417;SDS011;65250;47.602;19.002;2023-03-13T11:15:15;9.43;;;4.32;;
76417;SDS011;65250;47.602;19.002;2023-03-13T11:17:45;6.55;;;4.30;;
76417;SDS011;65250;47.602;19.002;2023-03-13T11:20:24;6.35;;;3.92;;
76417;SDS011;65250;47.602;19.002;2023-03-13T11:25:30;7.72;;;5.10;;
76417;SDS011;65250;47.602;19.002;2023-03-13T11:42:03;7.47;;;5.43;;
76417;SDS011;65250;47.602;19.002;2023-03-13T11:44:51;8.65;;;5.45;;
76417;SDS011;65250;47.602;19.002;2023-03-13T12:02:38;9.55;;;5.63;;
76417;SDS011;65250;47.602;19.002;2023-03-13T12:05:09;6.87;;;4.60;;
76417;SDS011;65250;47.602;19.002;2023-03-13T12:07:38;7.50;;;5.57;;
76417;SDS011;65250;47.602;19.002;2023-03-13T12:10:21;6.38;;;4.80;;
76417;SDS011;65250;47.602;19.002;2023-03-13T12:13:06;8.55;;;5.43;;
76417;SDS011;65250;47.602;19.002;2023-03-13T12:15:42;7.90;;;5.40;;
76417;SDS011;65250;47.602;19.002;2023-03-13T12:20:57;7.72;;;6.03;;
76417;SDS011;65250;47.602;19.002;2023-03-13T12:23:28;8.48;;;5.75;;
76417;SDS011;65250;47.602;19.002;2023-03-13T12:26:14;10.13;;;6.03;;
76417;SDS011;65250;47.602;19.002;2023-03-13T12:29:05;11.88;;;5.32;;
76417;SDS011;65250;47.602;19.002;2023-03-13T12:39:44;10.98;;;5.45;;
76417;SDS011;65250;47.602;19.002;2023-03-13T12:44:56;6.20;;;5.43;;
76417;SDS011;65250;47.602;19.002;2023-03-13T12:47:32;8.95;;;5.47;;
76417;SDS011;65250;47.602;19.002;2023-03-13T12:58:57;8.13;;;5.03;;
76417;SDS011;65250;47.602;19.002;2023-03-13T13:01:38;5.43;;;4.53;;
76417;SDS011;65250;47.602;19.002;2023-03-13T13:04:11;10.90;;;4.30;;
76417;SDS011;65250;47.602;19.002;2023-03-13T13:06:59;4.13;;;3.72;;
76417;SDS011;65250;47.602;19.002;2023-03-13T13:09:32;10.27;;;3.80;;
76417;SDS011;65250;47.602;19.002;2023-03-13T13:12:22;13.50;;;4.50;;
76417;SDS011;65250;47.602;19.002;2023-03-13T13:19:55;5.95;;;2.70;;
76417;SDS011;65250;47.602;19.002;2023-03-13T13:32:45;4.63;;;3.35;;
76417;SDS011;65250;47.602;19.002;2023-03-13T13:46:24;5.47;;;2.75;;
76417;SDS011;65250;47.602;19.002;2023-03-13T14:32:30;5.77;;;3.50;;
76417;SDS011;65250;47.602;19.002;2023-03-13T14:34:57;7.70;;;3.40;;
76417;SDS011;65250;47.602;19.002;2023-03-13T14:38:00;6.47;;;3.45;;
76417;SDS011;65250;47.602;19.002;2023-03-13T14:40:18;8.23;;;3.85;;
76417;SDS011;65250;47.602;19.002;2023-03-13T14:42:56;5.95;;;3.00;;
76417;SDS011;65250;47.602;19.002;2023-03-13T14:45:26;3.97;;;2.67;;
76417;SDS011;65250;47.602;19.002;2023-03-13T14:47:55;3.45;;;2.50;;
76417;SDS011;65250;47.602;19.002;2023-03-13T14:50:30;10.00;;;2.80;;
76417;SDS011;65250;47.602;19.002;2023-03-13T14:53:01;3.92;;;2.53;;
76417;SDS011;65250;47.602;19.002;2023-03-13T14:55:31;3.33;;;2.30;;
76417;SDS011;65250;47.602;19.002;2023-03-13T14:58:04;5.03;;;2.40;;
76417;SDS011;65250;47.602;19.002;2023-03-13T15:00:39;2.88;;;1.80;;
76417;SDS011;65250;47.602;19.002;2023-03-13T15:08:36;3.65;;;2.17;;
76417;SDS011;65250;47.602;19.002;2023-03-13T15:13:59;5.60;;;2.20;;
76417;SDS011;65250;47.602;19.002;2023-03-13T15:16:27;2.63;;;1.70;;
76417;SDS011;65250;47.602;19.002;2023-03-13T15:18:54;2.70;;;1.85;;
76417;SDS011;65250;47.602;19.002;2023-03-13T15:21:23;5.78;;;1.70;;
76417;SDS011;65250;47.602;19.002;2023-03-13T15:24:15;6.10;;;1.70;;
76417;SDS011;65250;47.602;19.002;2023-03-13T15:26:41;4.13;;;1.83;;
76417;SDS011;65250;47.602;19.002;2023-03-13T15:29:08;5.50;;;1.48;;
76417;SDS011;65250;47.602;19.002;2023-03-13T15:31:36;3.28;;;1.45;;
76417;SDS011;65250;47.602;19.002;2023-03-13T15:34:04;3.67;;;1.55;;
76417;SDS011;65250;47.602;19.002;2023-03-13T15:36:32;3.07;;;1.40;;
76417;SDS011;65250;47.602;19.002;2023-03-13T15:38:59;2.63;;;1.23;;
76417;SDS011;65250;47.602;19.002;2023-03-13T15:41:25;6.32;;;1.38;;
76417;SDS011;65250;47.602;19.002;2023-03-13T15:43:52;3.88;;;1.40;;
76417;SDS011;65250;47.602;19.002;2023-03-13T15:46:20;2.65;;;0.90;;
76417;SDS011;65250;47.602;19.002;2023-03-13T15:48:48;6.60;;;1.30;;
76417;SDS011;65250;47.602;19.002;2023-03-13T15:51:16;2.38;;;1.00;;
76417;SDS011;65250;47.602;19.002;2023-03-13T15:53:43;3.58;;;1.20;;
76417;SDS011;65250;47.602;19.002;2023-03-13T15:56:15;1.45;;;0.98;;
76417;SDS011;65250;47.602;19.002;2023-03-13T15:58:46;5.70;;;0.90;;
76417;SDS011;65250;47.602;19.002;2023-03-13T16:01:14;4.20;;;1.10;;
76417;SDS011;65250;47.602;19.002;2023-03-13T16:03:42;4.00;;;1.10;;
76417;SDS011;65250;47.602;19.002;2023-03-13T16:06:16;2.88;;;1.25;;
76417;SDS011;65250;47.602;19.002;2023-03-13T16:08:44;3.10;;;1.25;;
76417;SDS011;65250;47.602;19.002;2023-03-13T16:11:12;1.65;;;1.10;;
76417;SDS011;65250;47.602;19.002;2023-03-13T16:13:40;2.83;;;1.20;;
76417;SDS011;65250;47.602;19.002;2023-03-13T16:16:17;2.95;;;1.08;;
76417;SDS011;65250;47.602;19.002;2023-03-13T16:18:48;6.78;;;1.23;;
76417;SDS011;65250;47.602;19.002;2023-03-13T16:21:17;5.47;;;1.20;;
76417;SDS011;65250;47.602;19.002;2023-03-13T16:23:46;2.08;;;1.10;;
76417;SDS011;65250;47.602;19.002;2023-03-13T16:26:15;3.30;;;0.90;;
76417;SDS011;65250;47.602;19.002;2023-03-13T16:28:46;2.03;;;0.95;;
76417;SDS011;65250;47.602;19.002;2023-03-13T16:31:15;2.72;;;0.85;;
76417;SDS011;65250;47.602;19.002;2023-03-13T16:33:46;3.97;;;1.20;;
76417;SDS011;65250;47.602;19.002;2023-03-13T16:36:18;1.73;;;1.00;;
76417;SDS011;65250;47.602;19.002;2023-03-13T16:38:46;5.03;;;1.07;;
76417;SDS011;65250;47.602;19.002;2023-03-13T16:41:15;5.32;;;1.30;;
76417;SDS011;65250;47.602;19.002;2023-03-13T16:43:43;3.08;;;1.10;;
76417;SDS011;65250;47.602;19.002;2023-03-13T16:46:14;5.47;;;1.40;;
76417;SDS011;65250;47.602;19.002;2023-03-13T16:49:04;4.90;;;1.30;;
76417;SDS011;65250;47.602;19.002;2023-03-13T16:51:32;4.43;;;0.90;;
76417;SDS011;65250;47.602;19.002;2023-03-13T16:53:58;4.82;;;1.13;;
76417;SDS011;65250;47.602;19.002;2023-03-13T16:59:00;1.70;;;0.95;;
76417;SDS011;65250;47.602;19.002;2023-03-13T17:01:28;6.10;;;1.20;;
76417;SDS011;65250;47.602;19.002;2023-03-13T17:03:56;3.53;;;1.33;;
76417;SDS011;65250;47.602;19.002;2023-03-13T17:06:25;6.95;;;2.45;;
76417;SDS011;65250;47.602;19.002;2023-03-13T17:09:01;11.60;;;2.20;;
76417;SDS011;65250;47.602;19.002;2023-03-13T17:11:30;1.98;;;1.30;;
76417;SDS011;65250;47.602;19.002;2023-03-13T17:13:56;3.55;;;1.17;;
76417;SDS011;65250;47.602;19.002;2023-03-13T17:16:28;2.87;;;1.50;;
76417;SDS011;65250;47.602;19.002;2023-03-13T17:18:58;11.73;;;5.47;;
76417;SDS011;65250;47.602;19.002;2023-03-13T17:21:26;5.32;;;2.90;;
76417;SDS011;65250;47.602;19.002;2023-03-13T17:23:57;5.43;;;3.05;;
76417;SDS011;65250;47.602;19.002;2023-03-13T17:26:31;1.92;;;1.30;;
76417;SDS011;65250;47.602;19.002;2023-03-13T17:29:00;2.80;;;2.00;;
76417;SDS011;65250;47.602;19.002;2023-03-13T17:31:28;3.00;;;1.55;;